2007/8/11 土曜日

花火大会。

暦では立秋を過ぎて「秋」ですが、毎日暑い日が続いています。

そんな中でNOTAMを見ると、全国的に花火大会が真っ盛りのようです。
羽田でもこんなNOTAMが出ています。

091233 RJAAYNYX
(4526/07 NOTAMN
Q)RJJJ/QXXXX//M/EW/000/019/
A)RJTT B)0708110500 C)0708111120
E)FIREWORKS WILL BE CONDUCTED AS FLW,
1.PLACE : 10.4KM FM RJTT ARP BRG 354DEG/QTE
: 353848N1394609E (HARUMI, CHUO-KU IN TOKYO)
2.TOTAL : 12000SHOTS
F)GND G)1871FT AGL)

これは、本日開催される「第20回東京湾大華火祭」で20時20分までに12,000発打ち上げられるようです。18時現在の羽田のMETARは、
RJTT 110900Z 20011KT 9999 FEW030 31/22 Q1012
と、まだ気温が31°Cと暑いですが、天気は最高のようです。

また、風も20011KTなのでRWY22はでしょうから、飛行機からの花火見物も最高ですよ。

Tags: ,

  • 羽田のBizJet
  • スタアラジャンボ
  • 羽田Nエリア
  • レトロ塗装
  • B737が主役
  • 久しぶりの城南島
  • 羽田でジャンボ
  • 3年半ぶりの羽田(ANA編)
  • 3年半ぶりの羽田(JAL編)
  • 航空連合
  • 今日も羽田へ。
  • 羽田でジャンボ
  • 羽田の国際線
  • 久しぶりの羽田
  • 九州遠征
  • 新聞記者にもマニアがいますね。
  • いよいよ聖火がやって来ます。
  • 着陸復航
  • 羽田に戻って来ました。
  • Filed under: Airport — ◇敏郎◇ @ 18:25:34

    コメント (0) »

    この記事にはまだコメントがついていません。

    コメント RSS トラックバック URL

    コメントをどうぞ

    HTML convert time: 0.243 sec. Powered by WordPress ME